createdAt,value
2018-01-26T14:31:47.174Z,0.00
2018-01-26T14:34:14.998Z,0.00
2018-01-26T14:36:44.236Z,0.00
2018-01-26T14:39:12.160Z,0.00
2018-01-26T14:41:39.977Z,0.00
2018-01-26T14:44:08.834Z,0.00
2018-01-26T14:46:38.531Z,0.00
2018-01-26T14:49:06.407Z,0.00
2018-01-26T14:51:34.253Z,0.00
2018-01-26T14:54:02.122Z,0.00
2018-01-26T14:56:29.947Z,0.00
2018-01-26T14:58:57.771Z,0.00
2018-01-26T15:01:25.642Z,0.00
2018-01-26T15:03:53.465Z,0.00
2018-01-26T15:06:21.452Z,0.00
2018-01-26T15:08:49.653Z,0.00
2018-01-26T15:11:17.474Z,0.00
2018-01-26T15:13:45.370Z,0.00
2018-01-26T15:16:13.520Z,0.00
2018-01-26T15:18:42.787Z,0.00
2018-01-26T15:23:05.228Z,50.02
2018-01-26T15:25:33.093Z,49.90
2018-01-26T15:28:00.970Z,50.26
2018-01-26T15:30:28.916Z,50.16
2018-01-26T15:32:56.761Z,50.44
2018-01-26T15:35:24.621Z,50.92
2018-01-26T15:37:53.399Z,51.14
2018-01-26T15:40:21.221Z,51.62
2018-01-26T15:42:49.058Z,52.06
2018-01-26T15:45:16.929Z,52.46
2018-01-26T15:47:44.794Z,52.86
2018-01-26T15:50:12.710Z,53.34
2018-01-26T15:52:40.639Z,53.33
2018-01-26T15:55:09.360Z,53.32
2018-01-26T15:57:37.194Z,53.57
2018-01-26T16:00:05.104Z,53.52
2018-01-26T16:02:32.943Z,53.94
2018-01-26T16:05:00.780Z,53.66
2018-01-26T16:07:29.158Z,53.85
2018-01-26T16:09:57.061Z,53.69
2018-01-26T16:12:25.755Z,53.73
2018-01-26T16:14:53.639Z,54.28
2018-01-26T16:17:21.472Z,54.40
2018-01-26T16:19:49.298Z,54.63
2018-01-26T16:22:17.498Z,55.27
2018-01-26T16:24:45.421Z,55.11
2018-01-26T16:27:13.258Z,54.67
2018-01-26T16:29:42.081Z,55.06
2018-01-26T16:32:09.921Z,55.14
2018-01-26T16:34:37.758Z,55.51
2018-01-26T16:37:05.655Z,56.06
2018-01-26T16:39:33.523Z,55.61
2018-01-26T16:42:01.370Z,55.81
2018-01-26T16:44:29.268Z,55.67
2018-01-26T16:46:57.104Z,55.65
2018-01-26T16:49:24.981Z,55.25
2018-01-26T16:51:53.107Z,55.78
2018-01-26T16:54:20.934Z,55.67
2018-01-26T16:56:48.774Z,56.33
2018-01-26T16:59:16.683Z,56.06
2018-01-26T17:01:44.532Z,55.95
2018-01-26T17:04:12.380Z,56.13
2018-01-26T17:06:40.263Z,56.07
2018-01-26T17:09:08.106Z,56.07
2018-01-26T17:11:35.974Z,56.23
2018-01-26T17:14:03.866Z,55.99
2018-01-26T17:16:31.718Z,56.48
2018-01-26T17:18:59.578Z,56.38
2018-01-26T17:21:27.474Z,56.45
2018-01-26T17:23:55.306Z,56.68
2018-01-26T17:26:23.193Z,56.65
2018-01-26T17:28:51.420Z,56.78
2018-01-26T17:31:19.281Z,56.77
2018-01-26T17:33:47.114Z,56.37
2018-01-26T17:36:14.994Z,56.38
2018-01-26T17:38:42.821Z,56.81
2018-01-26T17:41:10.643Z,56.38
2018-01-26T17:43:38.524Z,57.02
2018-01-26T17:46:06.346Z,56.92
2018-01-26T17:48:34.174Z,57.18
2018-01-26T17:51:02.114Z,57.13
2018-01-26T17:53:29.950Z,56.95
2018-01-26T17:55:57.795Z,57.29
2018-01-26T17:58:25.748Z,57.48
2018-01-26T18:00:57.276Z,57.85
2018-01-26T18:03:25.274Z,57.90
2018-01-26T18:05:53.145Z,58.43
2018-01-26T18:08:21.961Z,58.19
2018-01-26T18:10:49.896Z,57.98
2018-01-26T18:13:17.802Z,58.08
2018-01-26T18:15:45.747Z,57.75
2018-01-26T18:18:13.620Z,58.15
2018-01-26T18:20:41.478Z,57.92
2018-01-26T18:23:09.338Z,57.87
2018-01-26T18:25:38.174Z,57.66
2018-01-26T18:28:06.103Z,57.56
2018-01-26T18:30:33.945Z,57.73
2018-01-26T18:33:01.852Z,57.88
2018-01-26T18:35:29.717Z,57.77
2018-01-26T18:37:57.640Z,58.03
2018-01-26T18:40:26.455Z,58.61
2018-01-26T18:42:54.316Z,58.18
2018-01-26T18:45:22.268Z,58.27
2018-01-26T18:47:50.626Z,58.70
2018-01-26T18:50:19.186Z,58.40
2018-01-26T18:52:47.046Z,58.45
2018-01-26T18:55:14.943Z,58.52
2018-01-26T18:57:42.792Z,58.85
2018-01-26T19:00:10.642Z,58.84
2018-01-26T19:02:38.543Z,58.93
2018-01-26T19:05:06.618Z,58.90
2018-01-26T19:07:34.458Z,58.60
2018-01-26T19:10:02.389Z,58.65
2018-01-26T19:12:30.234Z,58.42
2018-01-26T19:14:58.087Z,58.83
2018-01-26T19:17:25.986Z,58.91
2018-01-26T19:19:53.904Z,58.57
2018-01-26T19:22:22.587Z,58.44
2018-01-26T19:24:54.471Z,58.36
2018-01-26T19:27:22.373Z,58.27
2018-01-26T19:29:50.355Z,58.71
2018-01-26T19:32:18.292Z,58.30
2018-01-26T19:34:46.156Z,58.48
2018-01-26T19:37:14.127Z,58.34
2018-01-26T19:39:43.793Z,58.30
2018-01-26T19:42:13.002Z,59.13
2018-01-26T19:44:40.943Z,58.64
2018-01-26T19:47:08.874Z,58.70
2018-01-26T19:49:37.245Z,58.87
2018-01-26T19:52:05.131Z,59.17
2018-01-26T19:54:33.086Z,59.16
2018-01-26T19:57:00.967Z,59.46
2018-01-26T19:59:28.841Z,59.19
2018-01-26T20:01:57.059Z,59.15
2018-01-26T20:04:30.474Z,59.08
2018-01-26T20:07:15.906Z,59.49
2018-01-26T20:09:43.810Z,59.22
2018-01-26T20:12:11.691Z,59.50
2018-01-26T20:14:40.665Z,59.31
2018-01-26T20:17:08.634Z,59.55
2018-01-26T20:19:36.624Z,59.57
2018-01-26T20:22:04.556Z,59.77
2018-01-26T20:24:32.422Z,59.54
2018-01-26T20:27:00.317Z,59.54
2018-01-26T20:29:28.284Z,59.47
2018-01-26T20:31:56.262Z,59.61
2018-01-26T20:34:24.460Z,59.61
2018-01-26T20:36:52.511Z,59.57
2018-01-26T20:39:20.361Z,59.47
2018-01-26T20:41:48.451Z,59.61
2018-01-26T20:44:17.596Z,59.91
2018-01-26T20:46:46.692Z,59.55
2018-01-26T20:49:14.941Z,60.07
2018-01-26T20:51:44.265Z,60.12
2018-01-26T20:54:12.626Z,60.56
2018-01-26T20:56:42.115Z,60.55
2018-01-26T20:59:12.166Z,60.35
2018-01-26T21:01:41.535Z,60.20
2018-01-26T21:04:10.804Z,60.30
2018-01-26T21:06:40.930Z,60.50
2018-01-26T21:09:10.121Z,60.34
2018-01-26T21:11:39.554Z,60.57
2018-01-26T21:14:07.810Z,60.78
2018-01-26T21:16:37.757Z,61.00
2018-01-26T21:19:06.300Z,60.79
2018-01-26T21:21:35.338Z,61.11
2018-01-26T21:24:05.273Z,61.09
2018-01-26T21:26:33.223Z,61.15
2018-01-26T21:29:01.090Z,61.39
2018-01-26T21:31:29.018Z,61.69
2018-01-26T21:33:56.934Z,62.01
2018-01-26T21:36:24.880Z,62.27
2018-01-26T21:38:52.999Z,62.16
2018-01-26T21:41:20.950Z,62.22
2018-01-26T21:43:49.037Z,62.20
2018-01-26T21:46:16.975Z,62.29
2018-01-26T21:48:44.827Z,62.29
2018-01-26T21:51:12.829Z,62.47
2018-01-26T21:53:40.682Z,62.55
2018-01-26T21:56:08.523Z,62.12
2018-01-26T21:58:36.686Z,62.11
2018-01-26T22:01:04.582Z,62.34
2018-01-26T22:03:32.507Z,62.36
2018-01-26T22:06:06.825Z,62.10
2018-01-26T22:08:34.758Z,61.97
2018-01-26T22:11:02.648Z,62.19
2018-01-26T22:13:30.564Z,62.02
2018-01-26T22:15:58.458Z,62.38
2018-01-26T22:18:26.436Z,62.30
2018-01-26T22:20:54.307Z,62.66
2018-01-26T22:23:22.149Z,63.21
2018-01-26T22:25:49.982Z,63.69
2018-01-26T22:28:17.882Z,63.67
2018-01-26T22:30:45.716Z,64.11
2018-01-26T22:33:13.571Z,63.63
2018-01-26T22:35:41.800Z,63.92
2018-01-26T22:38:09.643Z,63.74
2018-01-26T22:40:37.484Z,63.35
2018-01-26T22:43:05.382Z,63.54
2018-01-26T22:45:33.206Z,63.19
2018-01-26T22:48:01.059Z,63.28
2018-01-26T22:50:28.979Z,63.12
2018-01-26T22:52:56.847Z,63.11
2018-01-26T22:55:25.353Z,63.26
2018-01-26T22:57:53.253Z,63.38
2018-01-26T23:00:21.187Z,63.87
2018-01-26T23:02:49.022Z,63.90
2018-01-26T23:05:16.934Z,63.87
2018-01-26T23:07:44.777Z,64.38
2018-01-26T23:10:12.619Z,64.28
2018-01-26T23:12:40.763Z,64.72
2018-01-26T23:15:08.612Z,65.18
2018-01-26T23:17:36.478Z,65.60
2018-01-26T23:20:04.355Z,65.84
2018-01-26T23:22:32.210Z,65.60
2018-01-26T23:25:00.082Z,66.18
2018-01-26T23:27:27.972Z,66.37
2018-01-26T23:29:55.815Z,66.80
2018-01-26T23:32:23.669Z,66.86
2018-01-26T23:34:51.559Z,67.13
2018-01-26T23:37:20.139Z,67.27
2018-01-26T23:39:47.979Z,67.23
2018-01-26T23:42:16.072Z,67.58
2018-01-26T23:44:43.928Z,67.82
2018-01-26T23:47:11.786Z,68.25
2018-01-26T23:49:39.682Z,68.64
2018-01-26T23:52:07.507Z,68.85
2018-01-26T23:54:35.350Z,68.75
2018-01-26T23:57:03.247Z,68.56
2018-01-26T23:59:31.076Z,68.44
